Holdrege, NE (68949)

12:45 AM CST on February 08, 2016 (GMT -0600)
Brewster | | Change Station
CLOSE
Current Station
Airport
Location: Holdrege,
Elevation: 2310 ft
Nearby Weather Stations

Elev 2310 ft 40.45 °N, 99.34 °W | Updated 10 minutes ago

Clear
Clear
29 °F
Feels Like 16 °F
N
20
Wind Variable Wind from NW
Gusts 26 mph

Today
High -- | Low -- °F
--% Chance of Precip.
Yesterday
High -- | Low -- °F
Precip. -- in
Pressure 30.18 in
Visibility 10.0 miles
Clouds Clear
Windchill 16 °F
Dew Point 16 °F
Humidity 58%
Rainfall 0.00 in
Snow Depth Not available.
7:40 AM 6:03 PM
Waning Crescent, 0% visible
METAR KHDE 080635Z AUTO 31017G23KT 10SM CLR M02/M09 A3018 RMK AO2 T10181091
Pressure 30.18 in
Visibility 10.0 miles
Clouds Clear
Windchill 16 °F
Dew Point 16 °F
Humidity 58%
Rainfall 0.00 in
Snow Depth Not available.
7:40 AM 6:03 PM
Waning Crescent, 0% visible
METAR KHDE 080635Z AUTO 31017G23KT 10SM CLR M02/M09 A3018 RMK AO2 T10181091

10-Day Weather Forecast

Almanac

Astronomy

Feb. 08, 2016 Rise Set
Actual Time
Civil Twilight
Nautical Twilight
Astronomical Twilight
Moon
Length of Visible Light
Length of Day
Tomorrow will be .
, % of the Moon is Illuminated

Today's Extremes

State Highs State Lows

Community

WunderPhotos

Upload Photos

1,891,395 photos uploaded!

WunderBlog® & News

Nearby

Air Quality

  Air Quality AQ Index Pollutant
Not available.

Snow Depth

Station Depth Elevation

Earthquake Activity

City Distance Mag. Time & Date
Minimum magnitude displayed is 2.5.

Coastal Water Temperatures

Place Temperature

Stations

Nearby Weather Stations

Station Location Temp. Windchill Dew Point Humidity Wind Precip. Elev Updated Type
                   

Watches & Warnings

There are currently no watches in effect.